(°C)
-3°
-1°
(°C)
-6°
-4°
-2°
E
ESE
E
ESE
SSE
S
SSO
(km/h)
0-4
1-4
1-5
1-5
1-6
2-6
3-7
(mm)
0
0
0
0
0
0
0
(%)
0
0
0
0
0
0
0

Elevación del sol

/ 19.1°
sun-icon
UV 1
08:00
18:29
Gibosa creciente (144°)
18:03
03:24

METAR a 55.03°N 82.6°E (UNNT)

Hora Condiciones Temperatura/
Punto de condensación
Viento Visibilidad Tiempo Nubes Presión Cambiar Bruto
LIFR -3°C / -3°C 290º 2kt 190m. Runway 25: Visual range is 450m and decreasing. freezing Fog Vertical Visibility of 0ft. 1025 No Significant change. Runway 25: Clear and dry, 51-100% contamination with <1mm, friction coefficient 0.70. Runway 16: Clear and dry, 51-100% contamination with <1mm, friction coefficient 0.70. UNNT 170330Z 29001MPS 0200 0150SE R25/0450D FZFG VV001 M03/M03 Q1025 R25/090070 R16/090070 NOSIG RMK QBB050 QFE758/1011
LIFR -4°C / -4°C 290º 2kt 260m. Runway 25: Visual range is 400m and decreasing. freezing Fog Vertical Visibility of 0ft. 1025 No Significant change. Runway 25: Clear and dry, 51-100% contamination with <1mm, friction coefficient 0.70. Runway 16: Clear and dry, 51-100% contamination with <1mm, friction coefficient 0.70. UNNT 170300Z 29001MPS 0250 0150E R25/0400D FZFG VV002 M04/M04 Q1025 R25/090070 R16/090070 NOSIG RMK QFE758/1011
LIFR -4°C / -5°C variable 0kt 350m. Runway 25: Visual range is 750m. freezing Fog Vertical Visibility of 0ft. 1025 No Significant change. Runway 25: Clear and dry, 51-100% contamination with <1mm, friction coefficient 0.70. Runway 16: Clear and dry, 51-100% contamination with <1mm, friction coefficient 0.70. UNNT 170230Z 00000MPS 0350 0300SE R25/0750N FZFG VV001 M04/M05 Q1025 R25/090070 R16/090070 NOSIG RMK QBB050 QFE758/1011
LIFR -5°C / -5°C variable 0kt 260m. Runway 16: Visual range is 325m. Runway 07: Visual range is 450m. freezing Fog Vertical Visibility of 0ft. 1025 No Significant change. Runway 16: Clear and dry, 51-100% contamination with <1mm, friction coefficient 0.70. Runway 07: Clear and dry, 51-100% contamination with <1mm, friction coefficient 0.70. UNNT 170200Z 00000MPS 0250 0150S R16/0325N R07/0450N FZFG VV001 M05/M05 Q1025 R16/090070 R07/090070 NOSIG RMK QBB040 QFE758/1011
LIFR -6°C / -6°C 250º 2kt 140m. Runway 16: Visual range is 300m. Runway 07: Visual range is 200m. freezing Fog Vertical Visibility of 0ft. 1024 No Significant change. Runway 16: Clear and dry, 51-100% contamination with <1mm, friction coefficient 0.70. Runway 07: Clear and dry, 51-100% contamination with <1mm, friction coefficient 0.70. UNNT 170130Z 25001MPS 0150 R16/0300N R07/0200N FZFG VV001 M06/M06 Q1024 R16/090070 R07/090070 NOSIG RMK QBB050 QFE758/1011
LIFR -6°C / -6°C 260º 4kt 190m. Runway 25: Visual range is 1100m. freezing Fog Vertical Visibility of 0ft. 1024 No Significant change. Runway 25: Clear and dry, 51-100% contamination with <1mm, friction coefficient 0.70. Runway 16: Clear and dry, 51-100% contamination with <1mm, friction coefficient 0.70. UNNT 170100Z 26002MPS 0200 0100N R25/1100N FZFG VV001 M06/M06 Q1024 R25/090070 R16/090070 NOSIG RMK QBB040 QFE758/1011
LIFR -5°C / -6°C variable 0kt 100m. Runway 16: Visual range is 175m. Runway 07: Visual range is 300m. freezing Fog Vertical Visibility of 0ft. 1024 No Significant change. Runway 16: Clear and dry, 51-100% contamination with <1mm, friction coefficient 0.70. Runway 07: Clear and dry, 51-100% contamination with <1mm, friction coefficient 0.70. UNNT 170030Z 00000MPS 0100 0050S R16/0175N R07/0300N FZFG VV001 M05/M06 Q1024 R16/090070 R07/090070 NOSIG RMK QBB050 QFE758/1011
LIFR -5°C / -6°C variable 0kt 260m. Runway 16: Visual range is 900m and decreasing. Runway 07: Visual range is 375m. freezing Fog Vertical Visibility of 0ft. 1024 No Significant change. Runway 16: Clear and dry, 51-100% contamination with <1mm, friction coefficient 0.70. Runway 07: Clear and dry, 51-100% contamination with <1mm, friction coefficient 0.70. UNNT 170000Z 00000MPS 0250 0100SE R16/0900D R07/0375N FZFG VV001 M05/M06 Q1024 R16/090070 R07/090070 NOSIG RMK QBB040 QFE758/1011
LIFR -5°C / -5°C 260º 2kt 140m. Runway 16: Visual range is 650m. Runway 07: Visual range is 550m. freezing Fog Vertical Visibility of 0ft. 1024 No Significant change. Runway 16: Clear and dry, 51-100% contamination with <1mm, friction coefficient 0.70. Runway 07: Clear and dry, 51-100% contamination with <1mm, friction coefficient 0.70. UNNT 162330Z 26001MPS 0150 R16/0650N R07/0550N FZFG VV001 M05/M05 Q1024 R16/090070 R07/090070 NOSIG RMK QBB050 QFE758/1011
LIFR -6°C / -6°C variable 2kt 140m. Runway 16: Visual range is 550m. Runway 07: Visual range is 800m. freezing Fog Vertical Visibility of 0ft. 1024 No Significant change. Runway 16: Clear and dry, 51-100% contamination with <1mm, friction coefficient 0.70. Runway 07: Clear and dry, 51-100% contamination with <1mm, friction coefficient 0.70. UNNT 162300Z VRB01MPS 0150 R16/0550N R07/0800N FZFG VV001 M06/M06 Q1024 R16/090070 R07/090070 NOSIG RMK QBB050 QFE758/1011
LIFR -6°C / -6°C 280º 2kt 140m. Runway 16: Visual range is 700m and increasing. Runway 07: Visual range is 550m and increasing. freezing Fog Vertical Visibility of 0ft. 1024 No Significant change. Runway 16: Clear and dry, 51-100% contamination with <1mm, friction coefficient 0.70. Runway 07: Clear and dry, 51-100% contamination with <1mm, friction coefficient 0.70. UNNT 162230Z 28001MPS 0150 R16/0700U R07/0550U FZFG VV001 M06/M06 Q1024 R16/090070 R07/090070 NOSIG RMK QBB050 QFE758/1011
LIFR -5°C / -6°C 290º 2kt 140m. Runway 16: Visual range is 750m and decreasing. Runway 07: Visual range is 600m and decreasing. freezing Fog Vertical Visibility of 0ft. 1024 No Significant change. Runway 16: Clear and dry, 51-100% contamination with <1mm, friction coefficient 0.70. Runway 07: Clear and dry, 51-100% contamination with <1mm, friction coefficient 0.70. UNNT 162200Z 29001MPS 0150 0100SE R16/0750D R07/0600D FZFG VV001 M05/M06 Q1024 R16/090070 R07/090070 NOSIG RMK QBB050 QFE758/1011
LIFR -6°C / -6°C 280º 2kt 190m. Runway 16: Visual range is 650m. Runway 07: Visual range is 800m and decreasing. freezing Fog Vertical Visibility of 0ft. 1025 No Significant change. Runway 16: Clear and dry, 51-100% contamination with <1mm, friction coefficient 0.70. Runway 07: Clear and dry, 51-100% contamination with <1mm, friction coefficient 0.70. UNNT 162130Z 28001MPS 0200 0150S R16/0650N R07/0800D FZFG VV001 M06/M06 Q1025 R16/090070 R07/090070 NOSIG RMK QBB050 QFE758/1011
LIFR -4°C / -4°C 310º 2kt 140m. Runway 16: Visual range is 1200m and decreasing. Runway 07: Visual range is 550m. freezing Fog Vertical Visibility of 0ft. 1025 No Significant change. Runway 16: Clear and dry, 51-100% contamination with <1mm, friction coefficient 0.70. Runway 07: Clear and dry, 51-100% contamination with <1mm, friction coefficient 0.70. UNNT 162100Z 31001MPS 0150 0100S R16/1200D R07/0550N FZFG VV001 M04/M04 Q1025 R16/090070 R07/090070 NOSIG RMK QBB040 QFE758/1011
LIFR -5°C / -5°C 300º 4kt 140m. Runway 16: Visual range is 650m. Runway 07: Visual range is 650m. freezing Fog Vertical Visibility of 0ft. 1025 No Significant change. Runway 16: Clear and dry, 51-100% contamination with <1mm, friction coefficient 0.70. Runway 07: Clear and dry, 51-100% contamination with <1mm, friction coefficient 0.70. UNNT 162030Z 30002MPS 0150 0100S R16/0650N R07/0650N FZFG VV001 M05/M05 Q1025 R16/090070 R07/090070 NOSIG RMK QBB050 QFE759/1012
LIFR -5°C / -5°C 310º 2kt 190m. Runway 16: Visual range is 600m. Runway 07: Visual range is 400m and increasing. freezing Fog Vertical Visibility of 0ft. 1025 No Significant change. Runway 16: Clear and dry, 51-100% contamination with <1mm, friction coefficient 0.70. Runway 07: Clear and dry, 51-100% contamination with <1mm, friction coefficient 0.70. UNNT 162000Z 31001MPS 0200 0050SE R16/0600N R07/0400U FZFG VV003 M05/M05 Q1025 R16/090070 R07/090070 NOSIG RMK QFE759/1012
LIFR -3°C / -4°C variable 2kt 100m. Runway 07: Visual range is 350m and decreasing. freezing Fog Vertical Visibility of 0ft. 1025 No Significant change. Runway 07: Clear and dry, 51-100% contamination with <1mm, friction coefficient 0.70. Runway 16: Clear and dry, 51-100% contamination with <1mm, friction coefficient 0.70. UNNT 161930Z VRB01MPS 0100 R07/0350D FZFG SCT002 M03/M04 Q1025 R07/090070 R16/090070 NOSIG RMK QFE759/1012
LIFR -4°C / -4°C 290º 4kt 1100m. Runway 25: Visual range is 550m. freezing Fog Vertical Visibility of 0ft. 1025 No Significant change. Runway 25: Clear and dry, 51-100% contamination with <1mm, friction coefficient 0.70. Runway 16: Clear and dry, 51-100% contamination with <1mm, friction coefficient 0.70. UNNT 161900Z 29002MPS 1100 0100SE R25/0550N FZFG SCT002 M04/M04 Q1025 R25/090070 R16/090070 NOSIG RMK QFE759/1012
LIFR -3°C / -3°C 290º 4kt 190m. Runway 25: Visual range is 700m. freezing Fog Vertical Visibility of 0ft. 1025 No Significant change. Runway 25: Clear and dry, 51-100% contamination with <1mm, friction coefficient 0.70. Runway 16: Clear and dry, 51-100% contamination with <1mm, friction coefficient 0.70. UNNT 161830Z 29002MPS 0200 0100SE R25/0700N FZFG NSC M03/M03 Q1025 R25/090070 R16/090070 NOSIG RMK QFE759/1012
LIFR -4°C / -4°C 330º 4kt 350m. Runway 25: Visual range is 1000m and increasing. freezing Fog Vertical Visibility of 0ft. 1025 No Significant change. Runway 25: Clear and dry, 51-100% contamination with <1mm, friction coefficient 0.70. Runway 16: Clear and dry, 51-100% contamination with <1mm, friction coefficient 0.70. UNNT 161800Z 33002MPS 0350 0100SE R25/1000U FZFG NSC M04/M04 Q1025 R25/090070 R16/090070 NOSIG RMK QFE759/1012
IFR -1°C / -1°C 330º 2kt 2000m. Runway 25: Visual range is 2000m and decreasing. freezing Fog Vertical Visibility of 0ft. 1026 No Significant change. Runway 25: Clear and dry, 51-100% contamination with <1mm, friction coefficient 0.70. Runway 16: Clear and dry, 51-100% contamination with <1mm, friction coefficient 0.70. UNNT 161730Z 33001MPS 2000 0100SE R25/P2000D FZFG NSC M01/M01 Q1026 R25/090070 R16/090070 NOSIG RMK QFE759/1012
IFR -2°C / -2°C 350º 2kt 3100m freezing Fog Vertical Visibility of 0ft. 1026 No Significant change. Runway 25: Clear and dry, 51-100% contamination with <1mm, friction coefficient 0.70. Runway 16: Clear and dry, 51-100% contamination with <1mm, friction coefficient 0.70. UNNT 161700Z 35001MPS 3100 0200SE FZFG NSC M02/M02 Q1026 R25/090070 R16/090070 NOSIG RMK QFE759/1012
MVFR -2°C / -2°C 10º 4kt 8000m Mist Vertical Visibility of 0ft. 1026 No Significant change. Runway 25: Clear and dry, 51-100% contamination with <1mm, friction coefficient 0.70. Runway 16: Clear and dry, 51-100% contamination with <1mm, friction coefficient 0.70. UNNT 161630Z 01002MPS 8000 3600SE BR NSC M02/M02 Q1026 R25/090070 R16/090070 NOSIG RMK QFE759/1012
VFR -1°C / -1°C 310º 4kt 9000m - Clear 1026 No Significant change. Runway 25: Clear and dry, 51-100% contamination with <1mm, friction coefficient 0.70. Runway 16: Clear and dry, 51-100% contamination with <1mm, friction coefficient 0.70. UNNT 161600Z 31002MPS 9000 NSC M01/M01 Q1026 R25/090070 R16/090070 NOSIG RMK QFE759/1013

LIFR

-3°C / -3°C

[Más]
Viento 290º 2kt
Visibilidad 190m. Runway 25: Visual range is 450m and decreasing.
Tiempo freezing Fog
Nubes Vertical Visibility of 0ft.
Presión 1025
Cambiar No Significant change. Runway 25: Clear and dry, 51-100% contamination with <1mm, friction coefficient 0.70. Runway 16: Clear and dry, 51-100% contamination with <1mm, friction coefficient 0.70.
Bruto UNNT 170330Z 29001MPS 0200 0150SE R25/0450D FZFG VV001 M03/M03 Q1025 R25/090070 R16/090070 NOSIG RMK QBB050 QFE758/1011

LIFR

-4°C / -4°C

[Más]
Viento 290º 2kt
Visibilidad 260m. Runway 25: Visual range is 400m and decreasing.
Tiempo freezing Fog
Nubes Vertical Visibility of 0ft.
Presión 1025
Cambiar No Significant change. Runway 25: Clear and dry, 51-100% contamination with <1mm, friction coefficient 0.70. Runway 16: Clear and dry, 51-100% contamination with <1mm, friction coefficient 0.70.
Bruto UNNT 170300Z 29001MPS 0250 0150E R25/0400D FZFG VV002 M04/M04 Q1025 R25/090070 R16/090070 NOSIG RMK QFE758/1011

LIFR

-4°C / -5°C

[Más]
Viento variable 0kt
Visibilidad 350m. Runway 25: Visual range is 750m.
Tiempo freezing Fog
Nubes Vertical Visibility of 0ft.
Presión 1025
Cambiar No Significant change. Runway 25: Clear and dry, 51-100% contamination with <1mm, friction coefficient 0.70. Runway 16: Clear and dry, 51-100% contamination with <1mm, friction coefficient 0.70.
Bruto UNNT 170230Z 00000MPS 0350 0300SE R25/0750N FZFG VV001 M04/M05 Q1025 R25/090070 R16/090070 NOSIG RMK QBB050 QFE758/1011

LIFR

-5°C / -5°C

[Más]
Viento variable 0kt
Visibilidad 260m. Runway 16: Visual range is 325m. Runway 07: Visual range is 450m.
Tiempo freezing Fog
Nubes Vertical Visibility of 0ft.
Presión 1025
Cambiar No Significant change. Runway 16: Clear and dry, 51-100% contamination with <1mm, friction coefficient 0.70. Runway 07: Clear and dry, 51-100% contamination with <1mm, friction coefficient 0.70.
Bruto UNNT 170200Z 00000MPS 0250 0150S R16/0325N R07/0450N FZFG VV001 M05/M05 Q1025 R16/090070 R07/090070 NOSIG RMK QBB040 QFE758/1011

LIFR

-6°C / -6°C

[Más]
Viento 250º 2kt
Visibilidad 140m. Runway 16: Visual range is 300m. Runway 07: Visual range is 200m.
Tiempo freezing Fog
Nubes Vertical Visibility of 0ft.
Presión 1024
Cambiar No Significant change. Runway 16: Clear and dry, 51-100% contamination with <1mm, friction coefficient 0.70. Runway 07: Clear and dry, 51-100% contamination with <1mm, friction coefficient 0.70.
Bruto UNNT 170130Z 25001MPS 0150 R16/0300N R07/0200N FZFG VV001 M06/M06 Q1024 R16/090070 R07/090070 NOSIG RMK QBB050 QFE758/1011

LIFR

-6°C / -6°C

[Más]
Viento 260º 4kt
Visibilidad 190m. Runway 25: Visual range is 1100m.
Tiempo freezing Fog
Nubes Vertical Visibility of 0ft.
Presión 1024
Cambiar No Significant change. Runway 25: Clear and dry, 51-100% contamination with <1mm, friction coefficient 0.70. Runway 16: Clear and dry, 51-100% contamination with <1mm, friction coefficient 0.70.
Bruto UNNT 170100Z 26002MPS 0200 0100N R25/1100N FZFG VV001 M06/M06 Q1024 R25/090070 R16/090070 NOSIG RMK QBB040 QFE758/1011

LIFR

-5°C / -6°C

[Más]
Viento variable 0kt
Visibilidad 100m. Runway 16: Visual range is 175m. Runway 07: Visual range is 300m.
Tiempo freezing Fog
Nubes Vertical Visibility of 0ft.
Presión 1024
Cambiar No Significant change. Runway 16: Clear and dry, 51-100% contamination with <1mm, friction coefficient 0.70. Runway 07: Clear and dry, 51-100% contamination with <1mm, friction coefficient 0.70.
Bruto UNNT 170030Z 00000MPS 0100 0050S R16/0175N R07/0300N FZFG VV001 M05/M06 Q1024 R16/090070 R07/090070 NOSIG RMK QBB050 QFE758/1011

LIFR

-5°C / -6°C

[Más]
Viento variable 0kt
Visibilidad 260m. Runway 16: Visual range is 900m and decreasing. Runway 07: Visual range is 375m.
Tiempo freezing Fog
Nubes Vertical Visibility of 0ft.
Presión 1024
Cambiar No Significant change. Runway 16: Clear and dry, 51-100% contamination with <1mm, friction coefficient 0.70. Runway 07: Clear and dry, 51-100% contamination with <1mm, friction coefficient 0.70.
Bruto UNNT 170000Z 00000MPS 0250 0100SE R16/0900D R07/0375N FZFG VV001 M05/M06 Q1024 R16/090070 R07/090070 NOSIG RMK QBB040 QFE758/1011

LIFR

-5°C / -5°C

[Más]
Viento 260º 2kt
Visibilidad 140m. Runway 16: Visual range is 650m. Runway 07: Visual range is 550m.
Tiempo freezing Fog
Nubes Vertical Visibility of 0ft.
Presión 1024
Cambiar No Significant change. Runway 16: Clear and dry, 51-100% contamination with <1mm, friction coefficient 0.70. Runway 07: Clear and dry, 51-100% contamination with <1mm, friction coefficient 0.70.
Bruto UNNT 162330Z 26001MPS 0150 R16/0650N R07/0550N FZFG VV001 M05/M05 Q1024 R16/090070 R07/090070 NOSIG RMK QBB050 QFE758/1011

LIFR

-6°C / -6°C

[Más]
Viento variable 2kt
Visibilidad 140m. Runway 16: Visual range is 550m. Runway 07: Visual range is 800m.
Tiempo freezing Fog
Nubes Vertical Visibility of 0ft.
Presión 1024
Cambiar No Significant change. Runway 16: Clear and dry, 51-100% contamination with <1mm, friction coefficient 0.70. Runway 07: Clear and dry, 51-100% contamination with <1mm, friction coefficient 0.70.
Bruto UNNT 162300Z VRB01MPS 0150 R16/0550N R07/0800N FZFG VV001 M06/M06 Q1024 R16/090070 R07/090070 NOSIG RMK QBB050 QFE758/1011

LIFR

-6°C / -6°C

[Más]
Viento 280º 2kt
Visibilidad 140m. Runway 16: Visual range is 700m and increasing. Runway 07: Visual range is 550m and increasing.
Tiempo freezing Fog
Nubes Vertical Visibility of 0ft.
Presión 1024
Cambiar No Significant change. Runway 16: Clear and dry, 51-100% contamination with <1mm, friction coefficient 0.70. Runway 07: Clear and dry, 51-100% contamination with <1mm, friction coefficient 0.70.
Bruto UNNT 162230Z 28001MPS 0150 R16/0700U R07/0550U FZFG VV001 M06/M06 Q1024 R16/090070 R07/090070 NOSIG RMK QBB050 QFE758/1011

LIFR

-5°C / -6°C

[Más]
Viento 290º 2kt
Visibilidad 140m. Runway 16: Visual range is 750m and decreasing. Runway 07: Visual range is 600m and decreasing.
Tiempo freezing Fog
Nubes Vertical Visibility of 0ft.
Presión 1024
Cambiar No Significant change. Runway 16: Clear and dry, 51-100% contamination with <1mm, friction coefficient 0.70. Runway 07: Clear and dry, 51-100% contamination with <1mm, friction coefficient 0.70.
Bruto UNNT 162200Z 29001MPS 0150 0100SE R16/0750D R07/0600D FZFG VV001 M05/M06 Q1024 R16/090070 R07/090070 NOSIG RMK QBB050 QFE758/1011

LIFR

-6°C / -6°C

[Más]
Viento 280º 2kt
Visibilidad 190m. Runway 16: Visual range is 650m. Runway 07: Visual range is 800m and decreasing.
Tiempo freezing Fog
Nubes Vertical Visibility of 0ft.
Presión 1025
Cambiar No Significant change. Runway 16: Clear and dry, 51-100% contamination with <1mm, friction coefficient 0.70. Runway 07: Clear and dry, 51-100% contamination with <1mm, friction coefficient 0.70.
Bruto UNNT 162130Z 28001MPS 0200 0150S R16/0650N R07/0800D FZFG VV001 M06/M06 Q1025 R16/090070 R07/090070 NOSIG RMK QBB050 QFE758/1011

LIFR

-4°C / -4°C

[Más]
Viento 310º 2kt
Visibilidad 140m. Runway 16: Visual range is 1200m and decreasing. Runway 07: Visual range is 550m.
Tiempo freezing Fog
Nubes Vertical Visibility of 0ft.
Presión 1025
Cambiar No Significant change. Runway 16: Clear and dry, 51-100% contamination with <1mm, friction coefficient 0.70. Runway 07: Clear and dry, 51-100% contamination with <1mm, friction coefficient 0.70.
Bruto UNNT 162100Z 31001MPS 0150 0100S R16/1200D R07/0550N FZFG VV001 M04/M04 Q1025 R16/090070 R07/090070 NOSIG RMK QBB040 QFE758/1011

LIFR

-5°C / -5°C

[Más]
Viento 300º 4kt
Visibilidad 140m. Runway 16: Visual range is 650m. Runway 07: Visual range is 650m.
Tiempo freezing Fog
Nubes Vertical Visibility of 0ft.
Presión 1025
Cambiar No Significant change. Runway 16: Clear and dry, 51-100% contamination with <1mm, friction coefficient 0.70. Runway 07: Clear and dry, 51-100% contamination with <1mm, friction coefficient 0.70.
Bruto UNNT 162030Z 30002MPS 0150 0100S R16/0650N R07/0650N FZFG VV001 M05/M05 Q1025 R16/090070 R07/090070 NOSIG RMK QBB050 QFE759/1012

LIFR

-5°C / -5°C

[Más]
Viento 310º 2kt
Visibilidad 190m. Runway 16: Visual range is 600m. Runway 07: Visual range is 400m and increasing.
Tiempo freezing Fog
Nubes Vertical Visibility of 0ft.
Presión 1025
Cambiar No Significant change. Runway 16: Clear and dry, 51-100% contamination with <1mm, friction coefficient 0.70. Runway 07: Clear and dry, 51-100% contamination with <1mm, friction coefficient 0.70.
Bruto UNNT 162000Z 31001MPS 0200 0050SE R16/0600N R07/0400U FZFG VV003 M05/M05 Q1025 R16/090070 R07/090070 NOSIG RMK QFE759/1012

LIFR

-3°C / -4°C

[Más]
Viento variable 2kt
Visibilidad 100m. Runway 07: Visual range is 350m and decreasing.
Tiempo freezing Fog
Nubes Vertical Visibility of 0ft.
Presión 1025
Cambiar No Significant change. Runway 07: Clear and dry, 51-100% contamination with <1mm, friction coefficient 0.70. Runway 16: Clear and dry, 51-100% contamination with <1mm, friction coefficient 0.70.
Bruto UNNT 161930Z VRB01MPS 0100 R07/0350D FZFG SCT002 M03/M04 Q1025 R07/090070 R16/090070 NOSIG RMK QFE759/1012

LIFR

-4°C / -4°C

[Más]
Viento 290º 4kt
Visibilidad 1100m. Runway 25: Visual range is 550m.
Tiempo freezing Fog
Nubes Vertical Visibility of 0ft.
Presión 1025
Cambiar No Significant change. Runway 25: Clear and dry, 51-100% contamination with <1mm, friction coefficient 0.70. Runway 16: Clear and dry, 51-100% contamination with <1mm, friction coefficient 0.70.
Bruto UNNT 161900Z 29002MPS 1100 0100SE R25/0550N FZFG SCT002 M04/M04 Q1025 R25/090070 R16/090070 NOSIG RMK QFE759/1012

LIFR

-3°C / -3°C

[Más]
Viento 290º 4kt
Visibilidad 190m. Runway 25: Visual range is 700m.
Tiempo freezing Fog
Nubes Vertical Visibility of 0ft.
Presión 1025
Cambiar No Significant change. Runway 25: Clear and dry, 51-100% contamination with <1mm, friction coefficient 0.70. Runway 16: Clear and dry, 51-100% contamination with <1mm, friction coefficient 0.70.
Bruto UNNT 161830Z 29002MPS 0200 0100SE R25/0700N FZFG NSC M03/M03 Q1025 R25/090070 R16/090070 NOSIG RMK QFE759/1012

LIFR

-4°C / -4°C

[Más]
Viento 330º 4kt
Visibilidad 350m. Runway 25: Visual range is 1000m and increasing.
Tiempo freezing Fog
Nubes Vertical Visibility of 0ft.
Presión 1025
Cambiar No Significant change. Runway 25: Clear and dry, 51-100% contamination with <1mm, friction coefficient 0.70. Runway 16: Clear and dry, 51-100% contamination with <1mm, friction coefficient 0.70.
Bruto UNNT 161800Z 33002MPS 0350 0100SE R25/1000U FZFG NSC M04/M04 Q1025 R25/090070 R16/090070 NOSIG RMK QFE759/1012

IFR

-1°C / -1°C

[Más]
Viento 330º 2kt
Visibilidad 2000m. Runway 25: Visual range is 2000m and decreasing.
Tiempo freezing Fog
Nubes Vertical Visibility of 0ft.
Presión 1026
Cambiar No Significant change. Runway 25: Clear and dry, 51-100% contamination with <1mm, friction coefficient 0.70. Runway 16: Clear and dry, 51-100% contamination with <1mm, friction coefficient 0.70.
Bruto UNNT 161730Z 33001MPS 2000 0100SE R25/P2000D FZFG NSC M01/M01 Q1026 R25/090070 R16/090070 NOSIG RMK QFE759/1012

IFR

-2°C / -2°C

[Más]
Viento 350º 2kt
Visibilidad 3100m
Tiempo freezing Fog
Nubes Vertical Visibility of 0ft.
Presión 1026
Cambiar No Significant change. Runway 25: Clear and dry, 51-100% contamination with <1mm, friction coefficient 0.70. Runway 16: Clear and dry, 51-100% contamination with <1mm, friction coefficient 0.70.
Bruto UNNT 161700Z 35001MPS 3100 0200SE FZFG NSC M02/M02 Q1026 R25/090070 R16/090070 NOSIG RMK QFE759/1012

MVFR

-2°C / -2°C

[Más]
Viento 10º 4kt
Visibilidad 8000m
Tiempo Mist
Nubes Vertical Visibility of 0ft.
Presión 1026
Cambiar No Significant change. Runway 25: Clear and dry, 51-100% contamination with <1mm, friction coefficient 0.70. Runway 16: Clear and dry, 51-100% contamination with <1mm, friction coefficient 0.70.
Bruto UNNT 161630Z 01002MPS 8000 3600SE BR NSC M02/M02 Q1026 R25/090070 R16/090070 NOSIG RMK QFE759/1012

VFR

-1°C / -1°C

[Más]
Viento 310º 4kt
Visibilidad 9000m
Tiempo -
Nubes Clear
Presión 1026
Cambiar No Significant change. Runway 25: Clear and dry, 51-100% contamination with <1mm, friction coefficient 0.70. Runway 16: Clear and dry, 51-100% contamination with <1mm, friction coefficient 0.70.
Bruto UNNT 161600Z 31002MPS 9000 NSC M01/M01 Q1026 R25/090070 R16/090070 NOSIG RMK QFE759/1013

TAF a 55.03°N 82.6°E (UNNT)

From till


From till Wind 220º 6kt. Visibility 305.775m. freezing Fog . Broken Clouds 100ft.
Temporarly from till Visibility 804.670m. freezing Fog . Broken Clouds 300ft.
Becoming from till Wind 220º 6kt. Visibility 8000m. Broken Clouds 4000ft.
Temporarly from till Visibility 305.775m. Fog Smoke . Scattered Clouds 200ft.

Bruto: TAF UNNT 170200Z 1703/1803 22003MPS 0300 FZFG BKN001 TEMPO 1703/1705 0800 FZFG BKN003 BECMG 1705/1706 8000 NSW BKN040 TEMPO 1706/1803 0300 FG FU SCT002

Imágenes actuales de satélite y lluvia para 55.03°N 82.6°E

El marcador de lugar se coloca en 55.03°N 82.6°E. [Más]

La imagen de satélite en tiempo real se aprovecha de la combinación de bandas de la luz visible y de la luz infrarrojo. Como se puede detectar cambios de temperaturas atreves de la banda infrarrojo, la imagen no está escura de noche. No obstante, la niebla y las nubes bajas son apenas visibles en las imágenes infrarrojo como las diferencias de temperaturas entre el suelo y la niebla son muy pequeñas. Por eso son casi invisibles durante la noche. Las imágenes de satélite del Meteosat (Europa) son actualizados en tiempo real cada 5 minutos. Las imágenes del GOES-16/GOES-17 (América del Norte y América del Sur) y Himawari (Asia) son actualizados cada 10 minutos.

Copyright 2021 EUMETSAT / meteoblue. / Copyright 2021 meteoblue

Radar y precipitación nowcast para 55.03°N 82.6°E

llovizna
Leve
Moderado
Fuerte
Muy fuerte
Granizo

El marcador de lugar se coloca en 55.03°N 82.6°E. Esta animación muestra lo radar de precipitaciones hasta la última hora, así como la 1h previsión. Las lloviznas o las nevadas ligeras pueden ser invisibles para el radar. La intensidad de la precipitación está codificada por colores, que van del azul claro al naranja.